44.1°F
Current conditions from King Hill
Updated every 5 minutes
 
  Thursday April 24, 2014

Station Historical Data
Daily Summary for May 26, 2011 Units:  Metric    English   Both
« Previous Day
Next Day »
Daily Weekly Monthly Yearly Custom
  High: Low: Average:
Temperature: 27.8 °C 10.6 °C 19 °C
Dew Point: 20.7 °C 9.4 °C 15.6 °C
Humidity: 96% 62% 82%
Wind Speed: 22.5km/h 0km/h 8.7km/h
Wind Gust: 49.9km/h - -
Wind- - SW
Pressure: 1011.1 hPa 1005 hPa -
Precipitation: 31.5 mm    
Historical Graphs
 
 
Tabular Data for May 26, 2011
Time Temperature Dew Point Pressure Wind Wind Speed Wind Gust Humidity Daily Rainfall
00:00 11.2 °C 9.9 °C 1011.1 hPa Calm     92% 0 mm
00:10 11.3 °C 10.2 °C 1010.7 hPa North 1.6 km/h 3.2 km/h 93% 0 mm
00:15 11.3 °C 10.2 °C 1010.7 hPa Calm   4.8 km/h 93% 0 mm
00:20 11 °C 9.8 °C 1010.7 hPa Calm   4.8 km/h 92% 0 mm
00:25 10.8 °C 9.6 °C 1011.1 hPa Calm   4.8 km/h 92% 0 mm
00:30 10.8 °C 9.7 °C 1010.7 hPa Calm   4.8 km/h 93% 0 mm
00:35 10.7 °C 9.6 °C 1010.7 hPa North 1.6 km/h 4.8 km/h 93% 0 mm
00:40 10.8 °C 9.7 °C 1010.7 hPa NNW 3.2 km/h 6.4 km/h 93% 0 mm
00:45 10.8 °C 9.7 °C 1010.7 hPa WNW 3.2 km/h 6.4 km/h 93% 0 mm
00:50 10.8 °C 9.7 °C 1010.4 hPa WNW 1.6 km/h 6.4 km/h 93% 0 mm
00:55 10.8 °C 9.7 °C 1010.4 hPa WNW 1.6 km/h 6.4 km/h 93% 0 mm
01:00 10.7 °C 9.6 °C 1010.4 hPa WNW 1.6 km/h 8 km/h 93% 0 mm
01:05 10.7 °C 9.6 °C 1010.4 hPa Calm   8 km/h 93% 0 mm
01:15 10.6 °C 9.4 °C 1010 hPa WNW 3.2 km/h 4.8 km/h 93% 0 mm
01:20 10.7 °C 9.6 °C 1010 hPa WNW 1.6 km/h 4.8 km/h 93% 0 mm
01:25 10.6 °C 9.5 °C 1010 hPa WNW 1.6 km/h 6.4 km/h 93% 0 mm
01:30 10.6 °C 9.5 °C 1010 hPa Calm   6.4 km/h 93% 0 mm
01:35 10.6 °C 9.5 °C 1009.7 hPa Calm   4.8 km/h 93% 0 mm
01:40 10.6 °C 9.5 °C 1009.7 hPa WNW 3.2 km/h 4.8 km/h 93% 0 mm
01:45 10.8 °C 9.7 °C 1009.7 hPa WNW 1.6 km/h 6.4 km/h 93% 0 mm
01:50 10.9 °C 10 °C 1009.7 hPa Calm   6.4 km/h 94% 0 mm
01:55 11.1 °C 9.9 °C 1009.7 hPa Calm   6.4 km/h 93% 0 mm
02:00 11.2 °C 10.2 °C 1009.4 hPa Calm   1.6 km/h 94% 0 mm
02:05 11.1 °C 10 °C 1009.7 hPa WNW 1.6 km/h 4.8 km/h 93% 0 mm
02:10 11 °C 9.9 °C 1009.7 hPa WNW 1.6 km/h 4.8 km/h 93% 0 mm
02:15 11 °C 9.9 °C 1009.4 hPa Calm   4.8 km/h 93% 0 mm
02:20 11.3 °C 10.3 °C 1009.4 hPa WSW 6.4 km/h 12.9 km/h 94% 0 mm
02:25 11.9 °C 10.8 °C 1009 hPa SSW 4.8 km/h 12.9 km/h 93% 0 mm
02:30 12.2 °C 10.9 °C 1009 hPa Calm   11.3 km/h 92% 0 mm
02:40 12.5 °C 10.7 °C 1009 hPa SW 3.2 km/h 9.7 km/h 89% 0 mm
02:45 12.7 °C 10.9 °C 1009.4 hPa SW 1.6 km/h 9.7 km/h 89% 0 mm
02:50 12.7 °C 10.8 °C 1009.4 hPa Calm   8 km/h 88% 0 mm
02:55 12.8 °C 10.7 °C 1009.4 hPa SW 1.6 km/h 8 km/h 87% 0 mm
03:00 12.9 °C 10.8 °C 1009.4 hPa SSW 3.2 km/h 8 km/h 87% 0 mm
03:05 13.1 °C 10.8 °C 1009 hPa SW 1.6 km/h 8 km/h 86% 0 mm
03:10 13.1 °C 10.7 °C 1009 hPa Calm   8 km/h 85% 0 mm
03:20 13.3 °C 10.6 °C 1008.7 hPa SW 1.6 km/h 11.3 km/h 84% 0 mm
03:25 13.3 °C 10.7 °C 1008.7 hPa SW 1.6 km/h 8 km/h 84% 0 mm
03:35 13.3 °C 10.8 °C 1008.7 hPa Calm   4.8 km/h 85% 0 mm
03:40 13.2 °C 10.8 °C 1008.7 hPa SW 3.2 km/h 8 km/h 85% 0 mm
03:45 13.7 °C 11 °C 1008.4 hPa SW 3.2 km/h 11.3 km/h 84% 0 mm
03:50 14.1 °C 11.2 °C 1008 hPa SSW 3.2 km/h 11.3 km/h 83% 0 mm
03:55 14.7 °C 11.6 °C 1008 hPa SSW 4.8 km/h 16.1 km/h 82% 0 mm
04:00 15.2 °C 11.9 °C 1008 hPa SSW 4.8 km/h 16.1 km/h 81% 0 mm
04:05 15.6 °C 12 °C 1008 hPa SSW 1.6 km/h 14.5 km/h 79% 0 mm
04:10 15.8 °C 12 °C 1008 hPa SW 4.8 km/h 16.1 km/h 78% 0 mm
04:15 15.7 °C 12.1 °C 1007.7 hPa SW 1.6 km/h 16.1 km/h 79% 0 mm
04:20 15.7 °C 12.1 °C 1008 hPa SSW 4.8 km/h 11.3 km/h 79% 0 mm
04:25 15.6 °C 12.1 °C 1008 hPa Calm   11.3 km/h 80% 0 mm
04:30 15.7 °C 12.2 °C 1007.7 hPa SW 4.8 km/h 11.3 km/h 80% 0 mm
04:35 15.8 °C 12.5 °C 1007.7 hPa SSW 3.2 km/h 12.9 km/h 81% 0 mm
04:40 16 °C 12.7 °C 1008 hPa SSW 6.4 km/h 14.5 km/h 81% 0 mm
04:45 16.3 °C 12.8 °C 1008 hPa SW 4.8 km/h 19.3 km/h 80% 0 mm
04:50 16.5 °C 13.1 °C 1008 hPa SW 6.4 km/h 19.3 km/h 80% 0 mm
04:55 16.7 °C 13 °C 1007.7 hPa SSW 9.7 km/h 17.7 km/h 79% 0 mm
05:00 16.8 °C 13.2 °C 1007.7 hPa SSW 8 km/h 19.3 km/h 79% 0 mm
05:05 17.1 °C 13.2 °C 1007.7 hPa SSW 8 km/h 19.3 km/h 78% 0 mm
05:10 17.2 °C 13.2 °C 1007.3 hPa South 8 km/h 22.5 km/h 77% 0 mm
05:15 17.4 °C 13.5 °C 1007.3 hPa SW 8 km/h 22.5 km/h 78% 0 mm
05:20 17.5 °C 13.4 °C 1007.3 hPa SW 8 km/h 27.4 km/h 77% 0 mm
05:25 17.7 °C 13.4 °C 1007.3 hPa SSW 9.7 km/h 27.4 km/h 76% 0 mm
05:30 17.8 °C 13.7 °C 1006.7 hPa SSW 3.2 km/h 25.7 km/h 77% 0 mm
05:40 17.8 °C 13.6 °C 1006.7 hPa SSW 12.9 km/h 29 km/h 76% 0 mm
05:45 17.9 °C 13.6 °C 1006.7 hPa SSW 6.4 km/h 29 km/h 76% 0 mm
05:50 17.9 °C 13.8 °C 1007 hPa SW 11.3 km/h 25.7 km/h 77% 0 mm
05:55 18.1 °C 13.9 °C 1006.7 hPa SSW 4.8 km/h 25.7 km/h 77% 0 mm
06:00 18.2 °C 13.9 °C 1006.7 hPa SSW 8 km/h 22.5 km/h 76% 0 mm
06:10 18.5 °C 14.4 °C 1007 hPa SSW 14.5 km/h 32.2 km/h 77% 0 mm
06:15 18.6 °C 14.1 °C 1007.3 hPa SSW 14.5 km/h 40.2 km/h 75% 0 mm
06:20 18.7 °C 14.2 °C 1007 hPa SSW 16.1 km/h 40.2 km/h 75% 0 mm
06:25 18.7 °C 14.2 °C 1007 hPa SSW 16.1 km/h 37 km/h 75% 0 mm
06:30 18.8 °C 14.1 °C 1007 hPa SSW 14.5 km/h 38.6 km/h 74% 0 mm
06:35 18.8 °C 14.3 °C 1007.3 hPa SW 16.1 km/h 38.6 km/h 75% 0 mm
06:40 18.8 °C 14.1 °C 1007.3 hPa SSW 14.5 km/h 35.4 km/h 74% 0 mm
06:45 18.8 °C 14.3 °C 1007.3 hPa SSW 12.9 km/h 32.2 km/h 75% 0 mm
06:50 18.8 °C 14.3 °C 1007.3 hPa SSW 22.5 km/h 35.4 km/h 75% 0 mm
06:55 18.8 °C 14.3 °C 1007.3 hPa SSW 12.9 km/h 35.4 km/h 75% 0 mm
07:00 18.8 °C 14.5 °C 1007.3 hPa SSW 14.5 km/h 32.2 km/h 76% 0 mm
07:05 18.9 °C 14.4 °C 1007.3 hPa SSW 17.7 km/h 37 km/h 75% 0 mm
07:10 19 °C 14.5 °C 1007.7 hPa SW 12.9 km/h 37 km/h 75% 0 mm
07:15 19 °C 14.5 °C 1007.7 hPa SW 14.5 km/h 37 km/h 75% 0 mm
07:20 19.1 °C 14.6 °C 1007.7 hPa SW 20.9 km/h 40.2 km/h 75% 0 mm
07:25 19.2 °C 14.6 °C 1007.7 hPa SSW 14.5 km/h 49.9 km/h 75% 0 mm
07:30 19.2 °C 14.7 °C 1007.7 hPa SW 17.7 km/h 49.9 km/h 75% 0 mm
07:35 19.2 °C 14.7 °C 1007.7 hPa SW 16.1 km/h 40.2 km/h 75% 0 mm
07:40 19.3 °C 14.8 °C 1007.7 hPa SSW 17.7 km/h 40.2 km/h 75% 0 mm
07:45 19.4 °C 15.1 °C 1007.7 hPa SW 9.7 km/h 35.4 km/h 76% 0 mm
07:50 19.4 °C 15.1 °C 1008 hPa SW 14.5 km/h 33.8 km/h 76% 0 mm
07:55 19.6 °C 15.2 °C 1007.7 hPa SW 14.5 km/h 35.4 km/h 76% 0 mm
08:00 19.8 °C 15.4 °C 1007.7 hPa SW 6.4 km/h 35.4 km/h 76% 0 mm
08:05 19.9 °C 15.1 °C 1008 hPa SSW 14.5 km/h 35.4 km/h 74% 0 mm
08:10 19.8 °C 15.2 °C 1008 hPa SW 9.7 km/h 33.8 km/h 75% 0 mm
08:15 19.6 °C 15.1 °C 1008 hPa SW 11.3 km/h 35.4 km/h 75% 0 mm
08:20 19.8 °C 15.3 °C 1008 hPa SSW 9.7 km/h 40.2 km/h 75% 0 mm
08:25 20 °C 15.4 °C 1008 hPa SSW 9.7 km/h 40.2 km/h 75% 0 mm
08:30 20.2 °C 15.7 °C 1008 hPa SSW 14.5 km/h 38.6 km/h 75% 0 mm
08:35 20.5 °C 16.1 °C 1008 hPa SSW 8 km/h 33.8 km/h 76% 0 mm
08:40 20.8 °C 16.1 °C 1008.4 hPa SSW 12.9 km/h 32.2 km/h 74% 0 mm
08:45 21 °C 15.8 °C 1008.4 hPa SSW 17.7 km/h 32.2 km/h 72% 0 mm
08:50 20.8 °C 16 °C 1008.4 hPa South 9.7 km/h 32.2 km/h 74% 0 mm
08:55 20.8 °C 16 °C 1008.4 hPa SSW 12.9 km/h 32.2 km/h 74% 0 mm
09:00 20.6 °C 15.8 °C 1008.4 hPa SSW 11.3 km/h 37 km/h 74% 0 mm
09:05 20.4 °C 15.7 °C 1008.7 hPa SSW 14.5 km/h 37 km/h 74% 0 mm
09:10 20.4 °C 15.7 °C 1009 hPa SSW 17.7 km/h 37 km/h 74% 0 mm
09:15 20.4 °C 15.9 °C 1008.7 hPa SW 14.5 km/h 30.6 km/h 75% 0 mm
09:20 20.4 °C 15.9 °C 1008.7 hPa SW 8 km/h 30.6 km/h 75% 0 mm
09:25 20.5 °C 15.9 °C 1008.7 hPa SW 14.5 km/h 30.6 km/h 75% 0 mm
09:30 20.4 °C 15.9 °C 1008.7 hPa SSW 16.1 km/h 29 km/h 75% 0 mm
09:40 20.5 °C 15.9 °C 1009 hPa SSW 12.9 km/h 25.7 km/h 75% 0 mm
09:45 20.4 °C 15.8 °C 1009 hPa SSW 9.7 km/h 25.7 km/h 75% 0 mm
09:50 20.4 °C 16 °C 1008.7 hPa SSW 14.5 km/h 29 km/h 76% 0 mm
09:55 20.3 °C 15.8 °C 1008.7 hPa SSW 11.3 km/h 38.6 km/h 75% 0 mm
10:00 20.4 °C 16.2 °C 1008.4 hPa SSW 8 km/h 38.6 km/h 77% 0 mm
10:05 20.6 °C 16.2 °C 1008.4 hPa SSW 14.5 km/h 35.4 km/h 76% 0 mm
10:10 20.9 °C 16.3 °C 1008.4 hPa SSW 12.9 km/h 35.4 km/h 75% 0 mm
10:15 21.2 °C 16.8 °C 1008.4 hPa SSW 4.8 km/h 29 km/h 76% 0 mm
10:20 21.6 °C 17.2 °C 1008.7 hPa SW 11.3 km/h 25.7 km/h 76% 0 mm
10:25 21.7 °C 16.8 °C 1008.7 hPa SSW 9.7 km/h 30.6 km/h 74% 0 mm
10:30 21.8 °C 17.4 °C 1008.7 hPa SSW 12.9 km/h 30.6 km/h 76% 0 mm
10:40 22.3 °C 17.2 °C 1008.7 hPa SSW 8 km/h 27.4 km/h 73% 0 mm
10:45 22.6 °C 17.9 °C 1008.4 hPa SW 3.2 km/h 25.7 km/h 75% 0 mm
10:50 22.9 °C 18 °C 1008.4 hPa SW 9.7 km/h 19.3 km/h 74% 0 mm
10:55 22.9 °C 17.8 °C 1008.4 hPa SSW 9.7 km/h 27.4 km/h 73% 0 mm
11:00 22.9 °C 17.2 °C 1008.4 hPa SSW 19.3 km/h 38.6 km/h 70% 0 mm
11:05 22.9 °C 18.1 °C 1008 hPa SW 11.3 km/h 38.6 km/h 74% 0 mm
11:10 23.2 °C 17.8 °C 1008 hPa SW 9.7 km/h 27.4 km/h 72% 0 mm
11:15 23.3 °C 18 °C 1008 hPa South 14.5 km/h 27.4 km/h 72% 0 mm
11:20 23.5 °C 18.4 °C 1008.4 hPa SSW 12.9 km/h 29 km/h 73% 0 mm
11:25 23.6 °C 17.8 °C 1008 hPa SW 9.7 km/h 33.8 km/h 70% 0 mm
11:30 23.6 °C 18.3 °C 1008.4 hPa SW 11.3 km/h 33.8 km/h 72% 0 mm
11:35 23.7 °C 18.1 °C 1008 hPa South 9.7 km/h 29 km/h 71% 0 mm
11:40 23.8 °C 18.4 °C 1008 hPa South 8 km/h 29 km/h 72% 0 mm
11:45 23.8 °C 18.3 °C 1008 hPa South 9.7 km/h 25.7 km/h 71% 0 mm
11:50 23.4 °C 18.1 °C 1007.7 hPa SW 11.3 km/h 25.7 km/h 72% 0 mm
11:55 23.3 °C 18.4 °C 1007.7 hPa SW 9.7 km/h 22.5 km/h 74% 0 mm
12:00 23.5 °C 18.6 °C 1007.7 hPa SW 4.8 km/h 20.9 km/h 74% 0 mm
12:05 23.9 °C 18.8 °C 1007.7 hPa SW 9.7 km/h 20.9 km/h 73% 0 mm
12:10 24.3 °C 18.9 °C 1007.3 hPa SSW 4.8 km/h 20.9 km/h 72% 0 mm
12:20 24.7 °C 18.8 °C 1007.3 hPa SSW 12.9 km/h 25.7 km/h 70% 0 mm
12:25 24.7 °C 18.9 °C 1007.3 hPa SSW 14.5 km/h 30.6 km/h 70% 0 mm
12:30 24.8 °C 19.2 °C 1007.3 hPa SSW 11.3 km/h 30.6 km/h 71% 0 mm
12:40 25.2 °C 19.4 °C 1007.3 hPa SSW 9.7 km/h 29 km/h 70% 0 mm
12:45 24.7 °C 18.4 °C 1007.3 hPa SSW 17.7 km/h 32.2 km/h 68% 0 mm
12:50 24.8 °C 19.2 °C 1007.3 hPa SW 4.8 km/h 32.2 km/h 71% 0 mm
12:55 25.2 °C 19.6 °C 1007 hPa South 8 km/h 32.2 km/h 71% 0 mm
13:00 25.2 °C 19.1 °C 1007 hPa SW 12.9 km/h 32.2 km/h 69% 0 mm
13:05 24.7 °C 18.7 °C 1007 hPa SW 16.1 km/h 32.2 km/h 69% 0 mm
13:10 24.7 °C 19.1 °C 1007 hPa SSW 8 km/h 25.7 km/h 71% 0 mm
13:15 25 °C 19.2 °C 1007 hPa SSW 9.7 km/h 32.2 km/h 70% 0 mm
13:20 25 °C 19.2 °C 1007 hPa SSW 6.4 km/h 32.2 km/h 70% 0 mm
13:25 24.9 °C 18.9 °C 1007 hPa SW 12.9 km/h 32.2 km/h 69% 0 mm
13:30 25 °C 19.6 °C 1007 hPa SSW 9.7 km/h 27.4 km/h 72% 0 mm
13:35 25.2 °C 19.4 °C 1007.3 hPa SW 6.4 km/h 32.2 km/h 70% 0 mm
13:40 25.2 °C 19.1 °C 1007 hPa SW 11.3 km/h 32.2 km/h 69% 0 mm
13:45 25.2 °C 19.3 °C 1007.3 hPa SW 9.7 km/h 25.7 km/h 70% 0 mm
13:50 25.2 °C 19.4 °C 1006.7 hPa South 3.2 km/h 22.5 km/h 70% 0 mm
13:55 25.2 °C 19.6 °C 1006.3 hPa South 3.2 km/h 22.5 km/h 71% 0 mm
14:00 25.2 °C 19.4 °C 1007.3 hPa WSW 14.5 km/h 33.8 km/h 70% 0 mm
14:05 24.8 °C 18.7 °C 1007.3 hPa West 8 km/h 35.4 km/h 69% 0 mm
14:10 24.3 °C 19.3 °C 1006.7 hPa West 8 km/h 35.4 km/h 74% 0 mm
14:15 24.8 °C 19.4 °C 1006.7 hPa SW 1.6 km/h 25.7 km/h 72% 0 mm
14:20 25.9 °C 20.7 °C 1006.7 hPa West 3.2 km/h 12.9 km/h 73% 0 mm
14:25 26.4 °C 19.8 °C 1006.7 hPa WSW 6.4 km/h 19.3 km/h 67% 0 mm
14:30 26.9 °C 19.8 °C 1006.7 hPa SW 14.5 km/h 25.7 km/h 65% 0 mm
14:40 27.7 °C 20.1 °C 1006.3 hPa SW 12.9 km/h 24.1 km/h 63% 0 mm
14:50 27.8 °C 20.3 °C 1006 hPa SW 8 km/h 24.1 km/h 64% 0 mm
14:55 27.8 °C 20.7 °C 1006 hPa SSW 4.8 km/h 24.1 km/h 65% 0 mm
15:00 27.7 °C 19.7 °C 1006 hPa SW 11.3 km/h 24.1 km/h 62% 0 mm
15:05 27.2 °C 20.1 °C 1006 hPa SW 11.3 km/h 24.1 km/h 65% 0 mm
15:10 27.1 °C 20 °C 1005.6 hPa SW 8 km/h 27.4 km/h 65% 0 mm
15:15 27.7 °C 20.6 °C 1005.6 hPa SSW 4.8 km/h 29 km/h 65% 0 mm
15:20 27.7 °C 20.3 °C 1005.6 hPa SW 8 km/h 29 km/h 64% 0 mm
15:25 27.2 °C 19.8 °C 1005.6 hPa SSW 14.5 km/h 27.4 km/h 64% 0 mm
15:30 26.7 °C 19.6 °C 1005.6 hPa SSW 11.3 km/h 27.4 km/h 65% 0 mm
15:35 26.9 °C 19.8 °C 1005.6 hPa SW 6.4 km/h 25.7 km/h 65% 0 mm
15:40 26.9 °C 20.3 °C 1005.6 hPa SW 9.7 km/h 22.5 km/h 67% 0 mm
15:45 27.2 °C 20.3 °C 1005.6 hPa SSW 6.4 km/h 22.5 km/h 66% 0 mm
15:50 27.1 °C 19.7 °C 1005.3 hPa SSW 11.3 km/h 22.5 km/h 64% 0 mm
16:00 26.7 °C 20.1 °C 1005.3 hPa SW 8 km/h 19.3 km/h 67% 0 mm
16:05 27.1 °C 19.7 °C 1005 hPa SW 9.7 km/h 17.7 km/h 64% 0 mm
16:10 27 °C 19.9 °C 1005.3 hPa SW 11.3 km/h 20.9 km/h 65% 0 mm
16:15 26.7 °C 19.6 °C 1005.3 hPa SW 4.8 km/h 22.5 km/h 65% 0 mm
16:20 26.4 °C 19.3 °C 1005.3 hPa SW 11.3 km/h 24.1 km/h 65% 0 mm
16:25 26.2 °C 19.3 °C 1005.3 hPa SW 8 km/h 24.1 km/h 66% 0 mm
16:30 25.9 °C 19.1 °C 1005 hPa SW 9.7 km/h 19.3 km/h 66% 0 mm
16:35 25.7 °C 19.6 °C 1005.3 hPa WSW 6.4 km/h 19.3 km/h 69% 0 mm
16:40 25.1 °C 20.3 °C 1005.6 hPa West 6.4 km/h 19.3 km/h 75% 0.5 mm
16:45 23.9 °C 20.3 °C 1005.6 hPa WNW 8 km/h 19.3 km/h 80% 0.5 mm
16:50 23.1 °C 20.6 °C 1005.6 hPa WNW 1.6 km/h 19.3 km/h 86% 0.5 mm
16:55 22.7 °C 20.3 °C 1006 hPa Calm   14.5 km/h 86% 0.8 mm
17:00 22.4 °C 19.9 °C 1006 hPa NW 8 km/h 16.1 km/h 86% 0.8 mm
17:05 21.7 °C 19.2 °C 1006 hPa NW 4.8 km/h 20.9 km/h 86% 0.8 mm
17:10 21.2 °C 19 °C 1006 hPa WNW 3.2 km/h 20.9 km/h 87% 0.8 mm
17:15 20.9 °C 18.8 °C 1006.3 hPa Calm   11.3 km/h 88% 0.8 mm
17:20 20.6 °C 18.6 °C 1006.3 hPa NW 8 km/h 14.5 km/h 88% 0.8 mm
17:25 20.4 °C 18.6 °C 1006.3 hPa Calm   14.5 km/h 89% 0.8 mm
17:30 20.4 °C 18.5 °C 1006.7 hPa NW 4.8 km/h 8 km/h 89% 0.8 mm
17:35 20.3 °C 18.6 °C 1006.7 hPa WNW 4.8 km/h 12.9 km/h 90% 1.3 mm
17:40 19.9 °C 18 °C 1008 hPa WNW 19.3 km/h 30.6 km/h 89% 5.6 mm
17:45 18.9 °C 16.2 °C 1007.3 hPa SW 16.1 km/h 30.6 km/h 84% 11.2 mm
17:50 17.7 °C 15.3 °C 1007 hPa SSW 17.7 km/h 35.4 km/h 86% 16.8 mm
17:55 17.3 °C 15.5 °C 1006.7 hPa SW 14.5 km/h 37 km/h 89% 19.8 mm
18:00 17.1 °C 15.4 °C 1006.3 hPa SW 14.5 km/h 37 km/h 90% 22.9 mm
18:05 17.2 °C 15.7 °C 1007 hPa SW 9.7 km/h 33.8 km/h 91% 24.1 mm
18:10 17.3 °C 15.8 °C 1006 hPa SW 12.9 km/h 30.6 km/h 91% 25.4 mm
18:15 17.3 °C 15.9 °C 1006.7 hPa SW 11.3 km/h 30.6 km/h 92% 26.4 mm
18:20 17.2 °C 15.9 °C 1006.7 hPa SW 11.3 km/h 27.4 km/h 92% 27.4 mm
18:25 17.3 °C 16.1 °C 1005.6 hPa SW 12.9 km/h 27.4 km/h 93% 28.7 mm
18:30 17.4 °C 16.3 °C 1006.3 hPa SW 6.4 km/h 27.4 km/h 93% 29 mm
18:35 17.5 °C 16.5 °C 1007 hPa SW 14.5 km/h 24.1 km/h 94% 29 mm
18:40 17.5 °C 16.5 °C 1007.7 hPa SW 12.9 km/h 24.1 km/h 94% 29 mm
18:45 17.4 °C 16.4 °C 1007 hPa SW 9.7 km/h 24.1 km/h 94% 29 mm
18:50 17.3 °C 16.2 °C 1006 hPa SSW 1.6 km/h 22.5 km/h 93% 29 mm
18:55 17.3 °C 16.2 °C 1006 hPa SW 4.8 km/h 14.5 km/h 93% 29 mm
19:00 17.3 °C 16.1 °C 1006 hPa SSW 3.2 km/h 14.5 km/h 93% 29 mm
19:05 17.2 °C 16.1 °C 1006.7 hPa SSW 4.8 km/h 11.3 km/h 93% 29 mm
19:10 17.2 °C 16 °C 1007.3 hPa SSW 8 km/h 17.7 km/h 93% 29 mm
19:15 17.1 °C 15.9 °C 1007.3 hPa SW 8 km/h 17.7 km/h 93% 29 mm
19:20 17.1 °C 15.9 °C 1007.7 hPa SSW 4.8 km/h 17.7 km/h 93% 29 mm
19:25 17.1 °C 16.1 °C 1007.7 hPa SSW 6.4 km/h 16.1 km/h 94% 29 mm
19:30 17.1 °C 16.1 °C 1008 hPa SSW 3.2 km/h 16.1 km/h 94% 29.2 mm
19:35 17.1 °C 16.1 °C 1007.7 hPa SW 1.6 km/h 12.9 km/h 94% 29.2 mm
19:40 17.1 °C 16.1 °C 1008 hPa SW 1.6 km/h 12.9 km/h 94% 29.2 mm
19:45 17.2 °C 16.2 °C 1008 hPa SW 3.2 km/h 8 km/h 94% 29.2 mm
19:50 17.2 °C 16.2 °C 1007.7 hPa Calm   8 km/h 94% 29.5 mm
20:00 17.1 °C 16.1 °C 1007.3 hPa Calm   3.2 km/h 94% 29.5 mm
20:05 17.1 °C 16.1 °C 1007.7 hPa Calm   3.2 km/h 94% 29.5 mm
20:10 17.1 °C 16.1 °C 1007.7 hPa WSW 1.6 km/h 3.2 km/h 94% 29.5 mm
20:15 17 °C 16 °C 1007.7 hPa Calm   3.2 km/h 94% 29.5 mm
20:25 17 °C 16 °C 1008 hPa Calm     94% 29.5 mm
20:30 16.9 °C 16 °C 1008.4 hPa WSW 3.2 km/h 4.8 km/h 94% 29.5 mm
20:35 16.8 °C 16.1 °C 1008 hPa Calm   4.8 km/h 95% 29.5 mm
20:45 16.8 °C 16.1 °C 1008 hPa WSW 1.6 km/h 6.4 km/h 95% 29.5 mm
20:55 16.8 °C 16 °C 1008.4 hPa Calm   6.4 km/h 95% 29.5 mm
21:00 16.9 °C 16.3 °C 1008.4 hPa WSW 1.6 km/h 3.2 km/h 96% 29.5 mm
21:05 16.9 °C 16.3 °C 1008.4 hPa Calm   3.2 km/h 96% 29.5 mm
21:10 16.9 °C 16.3 °C 1008.7 hPa Calm     96% 29.5 mm
21:15 16.9 °C 16.3 °C 1009 hPa Calm   1.6 km/h 96% 29.5 mm
21:20 17 °C 16.3 °C 1008.7 hPa Calm   1.6 km/h 96% 29.5 mm
21:25 17 °C 16.3 °C 1008.7 hPa Calm   4.8 km/h 96% 29.5 mm
21:35 16.9 °C 16.2 °C 1009 hPa Calm   3.2 km/h 96% 29.5 mm
21:40 16.9 °C 16.2 °C 1009 hPa Calm   1.6 km/h 96% 29.5 mm
21:50 16.9 °C 16.3 °C 1009 hPa Calm   1.6 km/h 96% 29.5 mm
21:55 16.9 °C 16.3 °C 1009 hPa Calm   3.2 km/h 96% 29.5 mm
22:00 16.9 °C 16.3 °C 1009 hPa Calm   3.2 km/h 96% 29.5 mm
22:05 16.9 °C 16.3 °C 1009 hPa WSW 3.2 km/h 4.8 km/h 96% 29.7 mm
22:15 16.9 °C 16.3 °C 1009 hPa Calm   4.8 km/h 96% 30 mm
22:20 16.9 °C 16.2 °C 1009.4 hPa Calm   4.8 km/h 96% 30 mm
22:25 16.9 °C 16.2 °C 1008.7 hPa Calm   3.2 km/h 96% 30.2 mm
22:30 16.9 °C 16.3 °C 1008.7 hPa Calm   3.2 km/h 96% 31 mm
22:35 16.9 °C 16.2 °C 1008.7 hPa Calm   3.2 km/h 96% 31.2 mm
22:40 16.9 °C 16.2 °C 1008.7 hPa Calm   3.2 km/h 96% 31.2 mm
22:45 16.9 °C 16.2 °C 1009 hPa Calm   3.2 km/h 96% 31.2 mm
22:50 16.8 °C 16.2 °C 1009 hPa Calm     96% 31.5 mm
22:55 16.8 °C 16.2 °C 1009 hPa Calm     96% 31.5 mm
23:00 16.8 °C 16.2 °C 1009 hPa Calm     96% 31.5 mm
23:05 16.7 °C 16.1 °C 1009 hPa Calm   1.6 km/h 96% 31.5 mm
23:10 16.8 °C 16.1 °C 1009 hPa WSW 1.6 km/h 4.8 km/h 96% 31.5 mm
23:15 16.8 °C 16.2 °C 1008.7 hPa Calm   4.8 km/h 96% 31.5 mm
23:20 16.8 °C 16.2 °C 1009 hPa Calm   1.6 km/h 96% 31.5 mm
23:25 16.8 °C 16.2 °C 1009 hPa Calm   3.2 km/h 96% 31.5 mm
23:30 16.8 °C 16.2 °C 1009.4 hPa Calm   3.2 km/h 96% 31.5 mm
23:35 16.8 °C 16.2 °C 1009.4 hPa Calm   3.2 km/h 96% 31.5 mm
23:40 16.8 °C 16.2 °C 1009.4 hPa Calm     96% 31.5 mm
23:45 16.8 °C 16.2 °C 1009.4 hPa Calm     96% 31.5 mm
23:50 16.7 °C 16 °C 1009.4 hPa Calm   4.8 km/h 96% 31.5 mm
23:55 16.3 °C 15.7 °C 1009 hPa Calm   4.8 km/h 96% 31.5 mm
Westford Weather
Compliments of Weather Underground

 
 
Current Radar Loop:

Copyright © WestfordWeather.net 2007-2014. All rights reserved.